Herbert J Plaisance — WDE6917 — position and weather

sailwx.info

Track history (hours):
 
Tides and Currents Weather Stations Pressure Air Temp Water Temp Dewpoint Dewpoint Depression Visibility Wind Speed Wind Dir Waves Ship Positions

Herbert J Plaisance

Owner: S & B Marine LLC, Harvey, LA. More information available from US FCC via Universal Licensing System and Coast Guard Vessel Documentation Center.

Last reported at 2017-Feb-26 04:09 UTC. Time now 2017-Feb-28 17:14 UTC.
Position N 29°33' W 090°55'.

Length 20 m; draft 3 m.

Type: Towing. MMSI: 367386576.

Date/timePositionNaut miles runAvg speedWind from/ knotsBaromVisibWave heightAir tempDewpointWater temp
2017-Feb-26 04:09N 29°33' W 090°55'3 5.4
2017-Feb-26 03:33N 29°32' W 090°51'5 5.0
2017-Feb-26 02:34N 29°33' W 090°45'3 2.7
2017-Feb-26 01:33N 29°33' W 090°42'5 5.1
2017-Feb-26 00:32N 29°28' W 090°43'2 1.7
2017-Feb-25 23:28N 29°26' W 090°43'0 0.0
2017-Feb-25 22:26N 29°26' W 090°43'0 0.0
2017-Feb-25 21:33N 29°26' W 090°43'0 0.0
2017-Feb-25 20:33N 29°26' W 090°43'0 0.0
2017-Feb-25 19:34N 29°26' W 090°43'0 0.0
2017-Feb-25 18:28N 29°26' W 090°43'0 0.0
2017-Feb-25 17:33N 29°26' W 090°43'0 0.0
2017-Feb-25 15:33N 29°26' W 090°43'0 0.0
2017-Feb-25 14:33N 29°26' W 090°43'0 0.0
2017-Feb-25 13:33N 29°26' W 090°43'1 0.8
2017-Feb-25 12:18N 29°25' W 090°43'0 0.0
2017-Feb-25 11:29N 29°25' W 090°43'0 0.0
2017-Feb-25 10:28N 29°25' W 090°43'0 0.0
2017-Feb-25 09:33N 29°25' W 090°43'0 0.0
2017-Feb-25 08:25N 29°25' W 090°43'0 0.0
2017-Feb-25 07:25N 29°25' W 090°43'0 0.0
2017-Feb-25 06:22N 29°25' W 090°43'0 0.0
2017-Feb-25 05:28N 29°25' W 090°43'0 0.0
2017-Feb-25 04:21N 29°25' W 090°43'0 0.0
2017-Feb-25 03:27N 29°25' W 090°43'0 0.0
2017-Feb-25 02:32N 29°25' W 090°43'0 0.0
2017-Feb-25 01:33N 29°25' W 090°43'0 0.0
2017-Feb-25 00:23N 29°25' W 090°43'0 0.0
2017-Feb-24 23:32N 29°25' W 090°43'0 0.0
2017-Feb-24 22:32N 29°25' W 090°43'0 0.0
2017-Feb-24 21:33N 29°25' W 090°43'0 0.0
2017-Feb-24 20:33N 29°25' W 090°43'0 0.0
2017-Feb-24 19:32N 29°25' W 090°43'0 0.0
2017-Feb-24 18:33N 29°25' W 090°43'0 0.0
2017-Feb-24 17:32N 29°25' W 090°43'0 0.0
2017-Feb-24 16:30N 29°25' W 090°43'0 0.0
2017-Feb-24 14:19N 29°25' W 090°43'0 0.0
2017-Feb-24 13:06N 29°25' W 090°43'0 0.0
2017-Feb-24 12:30N 29°25' W 090°43'0 0.0
2017-Feb-24 11:32N 29°25' W 090°43'0 0.0
2017-Feb-24 10:29N 29°25' W 090°43'0 0.0
2017-Feb-24 09:30N 29°25' W 090°43'0 0.0
2017-Feb-24 07:24N 29°25' W 090°43'0 0.0
2017-Feb-24 06:14N 29°25' W 090°43'0 0.0
2017-Feb-24 05:33N 29°25' W 090°43'0 0.0
2017-Feb-24 04:28N 29°25' W 090°43'0 0.0
2017-Feb-24 03:24N 29°25' W 090°43'0 0.0
2017-Feb-24 02:31N 29°25' W 090°43'0 0.0
2017-Feb-24 01:32N 29°25' W 090°43'0 0.0
2017-Feb-24 00:28N 29°25' W 090°43'0 0.0
2017-Feb-23 22:16N 29°25' W 090°43'0 0.0
2017-Feb-23 20:30N 29°25' W 090°43'0 0.0
2017-Feb-23 19:33N 29°25' W 090°43'0 0.0
2017-Feb-23 18:33N 29°25' W 090°43'0 0.0
2017-Feb-23 17:32N 29°25' W 090°43'2 1.6
2017-Feb-23 16:11N 29°23' W 090°44'0 0.1
2017-Feb-23 14:31N 29°23' W 090°44'2 2.3
2017-Feb-23 13:31N 29°25' W 090°43'0 0.0
2017-Feb-23 12:32N 29°25' W 090°43'0 0.0
2017-Feb-23 11:32N 29°25' W 090°43'0 0.0
2017-Feb-23 10:33N 29°25' W 090°43'0 0.0
2017-Feb-23 09:33N 29°25' W 090°43'0 0.0
2017-Feb-23 02:23N 29°25' W 090°43'0 0.0
2017-Feb-23 01:22N 29°25' W 090°43'0 0.0
2017-Feb-22 22:20N 29°25' W 090°43'0 0.0
2017-Feb-22 21:32N 29°25' W 090°43'0 0.0
2017-Feb-22 20:24N 29°25' W 090°43'0 0.0
2017-Feb-22 19:30N 29°25' W 090°43'1 1.3
2017-Feb-22 18:33N 29°27' W 090°43'1 0.5
2017-Feb-22 17:33N 29°27' W 090°43'5 5.4
2017-Feb-22 16:33N 29°32' W 090°42'2 2.3
2017-Feb-22 15:33N 29°34' W 090°44'1 0.6
2017-Feb-22 14:33N 29°33' W 090°45'0 0.3
2017-Feb-22 13:33N 29°33' W 090°45'0 0.1
2017-Feb-22 12:33N 29°33' W 090°45'1 1.1
2017-Feb-22 11:33N 29°32' W 090°46'5 4.5
2017-Feb-22 10:33N 29°32' W 090°51'1 0.0
2017-Feb-21 17:26N 29°32' W 090°52'5 5.4
2017-Feb-21 16:33N 29°32' W 090°46'4 3.6
2017-Feb-21 15:33N 29°34' W 090°43'5 4.8
2017-Feb-21 14:34N 29°29' W 090°43'4 0.2
2017-Feb-20 19:25N 29°25' W 090°43'0 0.1
2017-Feb-20 18:33N 29°25' W 090°43'0 0.0
2017-Feb-20 17:33N 29°25' W 090°43'0 0.0
2017-Feb-20 16:33N 29°26' W 090°43'0 0.0
2017-Feb-20 15:33N 29°25' W 090°43'0 0.0
2017-Feb-20 14:34N 29°25' W 090°43'0 0.0
2017-Feb-20 13:33N 29°25' W 090°43'1 1.0
2017-Feb-20 12:33N 29°27' W 090°43'0 0.0
2017-Feb-20 11:33N 29°27' W 090°43'0 0.0
2017-Feb-20 10:33N 29°27' W 090°43'0 0.0
2017-Feb-20 09:33N 29°27' W 090°43'0 0.0
2017-Feb-20 08:33N 29°27' W 090°43'0 0.0
2017-Feb-20 07:33N 29°27' W 090°43'0 0.0
2017-Feb-20 06:33N 29°27' W 090°43'0 0.0
2017-Feb-20 05:33N 29°27' W 090°43'0 0.0
2017-Feb-20 04:34N 29°27' W 090°43'0 0.0
2017-Feb-20 03:33N 29°27' W 090°43'0 0.0
2017-Feb-20 02:33N 29°27' W 090°43'0 0.0
2017-Feb-20 01:33N 29°27' W 090°43'0 0.0
2017-Feb-20 00:33N 29°27' W 090°43'4 4.1
2017-Feb-19 23:33N 29°31' W 090°43'4 4.3
2017-Feb-19 22:33N 29°35' W 090°43'0 0.0
2017-Feb-19 21:33N 29°35' W 090°43'2 1.7
2017-Feb-19 20:33N 29°33' W 090°42'6 5.8
2017-Feb-19 19:34N 29°28' W 090°43'2 1.7
2017-Feb-19 18:18N 29°25' W 090°43'0 0.0
2017-Feb-19 17:32N 29°25' W 090°43'0 0.5
2017-Feb-19 16:33N 29°26' W 090°43'0 0.0
2017-Feb-19 15:33N 29°26' W 090°43'0 0.0
2017-Feb-19 14:33N 29°26' W 090°43'0 0.3
2017-Feb-19 13:33N 29°26' W 090°43'0 0.3
2017-Feb-19 12:26N 29°27' W 090°43'0 0.0
2017-Feb-19 11:33N 29°27' W 090°43'0 0.0
2017-Feb-19 10:33N 29°27' W 090°43'0 0.0
2017-Feb-19 09:33N 29°27' W 090°43'0 0.0
2017-Feb-19 08:33N 29°27' W 090°43'0 0.0
2017-Feb-19 07:32N 29°27' W 090°43'0 0.0
2017-Feb-19 06:33N 29°27' W 090°43'0 0.0
2017-Feb-19 05:33N 29°27' W 090°43'0 0.0
2017-Feb-19 04:33N 29°27' W 090°43'0 0.0
2017-Feb-19 03:33N 29°27' W 090°43'0 0.0
2017-Feb-19 02:33N 29°27' W 090°43'0 0.0
2017-Feb-19 01:33N 29°27' W 090°43'0 0.0
2017-Feb-19 00:33N 29°27' W 090°43'0 0.0
2017-Feb-18 23:33N 29°27' W 090°43'0 0.0
2017-Feb-18 22:33N 29°27' W 090°43'0 0.0
2017-Feb-18 21:33N 29°27' W 090°43'0 0.0
2017-Feb-18 20:33N 29°27' W 090°43'0 0.0
2017-Feb-18 19:33N 29°27' W 090°43'1 0.6
2017-Feb-18 18:33N 29°26' W 090°43'0 0.0
2017-Feb-18 17:23N 29°26' W 090°43'1 0.7
2017-Feb-18 16:33N 29°27' W 090°43'0 0.0
2017-Feb-18 15:33N 29°27' W 090°43'0 0.0
2017-Feb-18 14:33N 29°27' W 090°43'0 0.0
2017-Feb-18 13:33N 29°27' W 090°43'0 0.0
2017-Feb-18 12:33N 29°27' W 090°43'0 0.0
2017-Feb-18 11:33N 29°27' W 090°43'0 0.0
2017-Feb-18 10:33N 29°27' W 090°43'0 0.0
2017-Feb-18 09:33N 29°27' W 090°43'0 0.0
2017-Feb-18 08:33N 29°27' W 090°43'0 0.0
2017-Feb-18 07:33N 29°27' W 090°43'0 0.0
2017-Feb-18 06:33N 29°27' W 090°43'0 0.0
2017-Feb-18 05:33N 29°27' W 090°43'0 0.0
2017-Feb-18 04:33N 29°27' W 090°43'0 0.0
2017-Feb-18 03:33N 29°27' W 090°43'0 0.0
2017-Feb-18 02:33N 29°27' W 090°43'0 0.0
2017-Feb-18 01:33N 29°27' W 090°43'0 0.0
2017-Feb-18 00:33N 29°27' W 090°43'0 0.0
2017-Feb-17 23:33N 29°27' W 090°43'0 0.0
2017-Feb-17 22:33N 29°27' W 090°43'0 0.0
2017-Feb-17 21:33N 29°27' W 090°43'0 0.0
2017-Feb-17 20:33N 29°27' W 090°43'0 0.0
2017-Feb-17 19:33N 29°27' W 090°43'1 0.5
2017-Feb-17 18:33N 29°26' W 090°43'1 0.7
2017-Feb-17 17:33N 29°27' W 090°43'0 0.0
2017-Feb-17 16:33N 29°27' W 090°43'0 0.0
2017-Feb-17 15:33N 29°27' W 090°43'0 0.0
2017-Feb-17 14:33N 29°27' W 090°43'0 0.0
2017-Feb-17 13:33N 29°27' W 090°43'0 0.0
2017-Feb-17 12:33N 29°27' W 090°43'0 0.0
2017-Feb-17 11:33N 29°27' W 090°43'0 0.0
2017-Feb-17 10:33N 29°27' W 090°43'0 0.0
2017-Feb-17 09:33N 29°27' W 090°43'0 0.0
2017-Feb-17 08:33N 29°27' W 090°43'0 0.0
2017-Feb-17 07:33N 29°27' W 090°43'0 0.0
2017-Feb-17 06:33N 29°27' W 090°43'0 0.0
2017-Feb-17 05:33N 29°27' W 090°43'0 0.0
2017-Feb-17 04:33N 29°27' W 090°43'1 0.9
2017-Feb-17 03:33N 29°28' W 090°43'5 4.6
2017-Feb-17 02:33N 29°32' W 090°42'2 2.5
2017-Feb-17 01:33N 29°34' W 090°44'1 1.3
2017-Feb-17 00:33N 29°33' W 090°45'0 0.0
2017-Feb-16 23:33N 29°33' W 090°45'4 3.6
2017-Feb-16 22:33N 29°32' W 090°49'10 0.7
2017-Feb-16 07:30N 29°37' W 090°59'5 4.9
2017-Feb-16 06:31N 29°34' W 090°55'5 4.8
2017-Feb-16 05:33N 29°32' W 090°50'4 4.3
2017-Feb-16 04:33N 29°33' W 090°45'  
Track history (hours):
 
Tides and Currents Weather Stations Pressure Air Temp Water Temp Dewpoint Dewpoint Depression Visibility Wind Speed Wind Dir Waves Ship Positions

Herbert J Plaisance

Owner: S & B Marine LLC, Harvey, LA. More information available from US FCC via Universal Licensing System and Coast Guard Vessel Documentation Center.

Last reported at 2017-Feb-26 04:09 UTC. Time now 2017-Feb-28 17:14 UTC.
Position N 29°33' W 090°55'.

Length 20 m; draft 3 m.

Type: Towing. MMSI: 367386576.

Date/timePositionNaut miles runAvg speedWind from/ knotsBaromVisibWave heightAir tempDewpointWater temp
2017-Feb-26 04:09N 29°33' W 090°55'3 5.4
2017-Feb-26 03:33N 29°32' W 090°51'5 5.0
2017-Feb-26 02:34N 29°33' W 090°45'3 2.7
2017-Feb-26 01:33N 29°33' W 090°42'5 5.1
2017-Feb-26 00:32N 29°28' W 090°43'2 1.7
2017-Feb-25 23:28N 29°26' W 090°43'0 0.0
2017-Feb-25 22:26N 29°26' W 090°43'0 0.0
2017-Feb-25 21:33N 29°26' W 090°43'0 0.0
2017-Feb-25 20:33N 29°26' W 090°43'0 0.0
2017-Feb-25 19:34N 29°26' W 090°43'0 0.0
2017-Feb-25 18:28N 29°26' W 090°43'0 0.0
2017-Feb-25 17:33N 29°26' W 090°43'0 0.0
2017-Feb-25 15:33N 29°26' W 090°43'0 0.0
2017-Feb-25 14:33N 29°26' W 090°43'0 0.0
2017-Feb-25 13:33N 29°26' W 090°43'1 0.8
2017-Feb-25 12:18N 29°25' W 090°43'0 0.0
2017-Feb-25 11:29N 29°25' W 090°43'0 0.0
2017-Feb-25 10:28N 29°25' W 090°43'0 0.0
2017-Feb-25 09:33N 29°25' W 090°43'0 0.0
2017-Feb-25 08:25N 29°25' W 090°43'0 0.0
2017-Feb-25 07:25N 29°25' W 090°43'0 0.0
2017-Feb-25 06:22N 29°25' W 090°43'0 0.0
2017-Feb-25 05:28N 29°25' W 090°43'0 0.0
2017-Feb-25 04:21N 29°25' W 090°43'0 0.0
2017-Feb-25 03:27N 29°25' W 090°43'0 0.0
2017-Feb-25 02:32N 29°25' W 090°43'0 0.0
2017-Feb-25 01:33N 29°25' W 090°43'0 0.0
2017-Feb-25 00:23N 29°25' W 090°43'0 0.0
2017-Feb-24 23:32N 29°25' W 090°43'0 0.0
2017-Feb-24 22:32N 29°25' W 090°43'0 0.0
2017-Feb-24 21:33N 29°25' W 090°43'0 0.0
2017-Feb-24 20:33N 29°25' W 090°43'0 0.0
2017-Feb-24 19:32N 29°25' W 090°43'0 0.0
2017-Feb-24 18:33N 29°25' W 090°43'0 0.0
2017-Feb-24 17:32N 29°25' W 090°43'0 0.0
2017-Feb-24 16:30N 29°25' W 090°43'0 0.0
2017-Feb-24 14:19N 29°25' W 090°43'0 0.0
2017-Feb-24 13:06N 29°25' W 090°43'0 0.0
2017-Feb-24 12:30N 29°25' W 090°43'0 0.0
2017-Feb-24 11:32N 29°25' W 090°43'0 0.0
2017-Feb-24 10:29N 29°25' W 090°43'0 0.0
2017-Feb-24 09:30N 29°25' W 090°43'0 0.0
2017-Feb-24 07:24N 29°25' W 090°43'0 0.0
2017-Feb-24 06:14N 29°25' W 090°43'0 0.0
2017-Feb-24 05:33N 29°25' W 090°43'0 0.0
2017-Feb-24 04:28N 29°25' W 090°43'0 0.0
2017-Feb-24 03:24N 29°25' W 090°43'0 0.0
2017-Feb-24 02:31N 29°25' W 090°43'0 0.0
2017-Feb-24 01:32N 29°25' W 090°43'0 0.0
2017-Feb-24 00:28N 29°25' W 090°43'0 0.0
2017-Feb-23 22:16N 29°25' W 090°43'0 0.0
2017-Feb-23 20:30N 29°25' W 090°43'0 0.0
2017-Feb-23 19:33N 29°25' W 090°43'0 0.0
2017-Feb-23 18:33N 29°25' W 090°43'0 0.0
2017-Feb-23 17:32N 29°25' W 090°43'2 1.6
2017-Feb-23 16:11N 29°23' W 090°44'0 0.1
2017-Feb-23 14:31N 29°23' W 090°44'2 2.3
2017-Feb-23 13:31N 29°25' W 090°43'0 0.0
2017-Feb-23 12:32N 29°25' W 090°43'0 0.0
2017-Feb-23 11:32N 29°25' W 090°43'0 0.0
2017-Feb-23 10:33N 29°25' W 090°43'0 0.0
2017-Feb-23 09:33N 29°25' W 090°43'0 0.0
2017-Feb-23 02:23N 29°25' W 090°43'0 0.0
2017-Feb-23 01:22N 29°25' W 090°43'0 0.0
2017-Feb-22 22:20N 29°25' W 090°43'0 0.0
2017-Feb-22 21:32N 29°25' W 090°43'0 0.0
2017-Feb-22 20:24N 29°25' W 090°43'0 0.0
2017-Feb-22 19:30N 29°25' W 090°43'1 1.3
2017-Feb-22 18:33N 29°27' W 090°43'1 0.5
2017-Feb-22 17:33N 29°27' W 090°43'5 5.4
2017-Feb-22 16:33N 29°32' W 090°42'2 2.3
2017-Feb-22 15:33N 29°34' W 090°44'1 0.6
2017-Feb-22 14:33N 29°33' W 090°45'0 0.3
2017-Feb-22 13:33N 29°33' W 090°45'0 0.1
2017-Feb-22 12:33N 29°33' W 090°45'1 1.1
2017-Feb-22 11:33N 29°32' W 090°46'5 4.5
2017-Feb-22 10:33N 29°32' W 090°51'1 0.0
2017-Feb-21 17:26N 29°32' W 090°52'5 5.4
2017-Feb-21 16:33N 29°32' W 090°46'4 3.6
2017-Feb-21 15:33N 29°34' W 090°43'5 4.8
2017-Feb-21 14:34N 29°29' W 090°43'4 0.2
2017-Feb-20 19:25N 29°25' W 090°43'0 0.1
2017-Feb-20 18:33N 29°25' W 090°43'0 0.0
2017-Feb-20 17:33N 29°25' W 090°43'0 0.0
2017-Feb-20 16:33N 29°26' W 090°43'0 0.0
2017-Feb-20 15:33N 29°25' W 090°43'0 0.0
2017-Feb-20 14:34N 29°25' W 090°43'0 0.0
2017-Feb-20 13:33N 29°25' W 090°43'1 1.0
2017-Feb-20 12:33N 29°27' W 090°43'0 0.0
2017-Feb-20 11:33N 29°27' W 090°43'0 0.0
2017-Feb-20 10:33N 29°27' W 090°43'0 0.0
2017-Feb-20 09:33N 29°27' W 090°43'0 0.0
2017-Feb-20 08:33N 29°27' W 090°43'0 0.0
2017-Feb-20 07:33N 29°27' W 090°43'0 0.0
2017-Feb-20 06:33N 29°27' W 090°43'0 0.0
2017-Feb-20 05:33N 29°27' W 090°43'0 0.0
2017-Feb-20 04:34N 29°27' W 090°43'0 0.0
2017-Feb-20 03:33N 29°27' W 090°43'0 0.0
2017-Feb-20 02:33N 29°27' W 090°43'0 0.0
2017-Feb-20 01:33N 29°27' W 090°43'0 0.0
2017-Feb-20 00:33N 29°27' W 090°43'4 4.1
2017-Feb-19 23:33N 29°31' W 090°43'4 4.3
2017-Feb-19 22:33N 29°35' W 090°43'0 0.0
2017-Feb-19 21:33N 29°35' W 090°43'2 1.7
2017-Feb-19 20:33N 29°33' W 090°42'6 5.8
2017-Feb-19 19:34N 29°28' W 090°43'2 1.7
2017-Feb-19 18:18N 29°25' W 090°43'0 0.0
2017-Feb-19 17:32N 29°25' W 090°43'0 0.5
2017-Feb-19 16:33N 29°26' W 090°43'0 0.0
2017-Feb-19 15:33N 29°26' W 090°43'0 0.0
2017-Feb-19 14:33N 29°26' W 090°43'0 0.3
2017-Feb-19 13:33N 29°26' W 090°43'0 0.3
2017-Feb-19 12:26N 29°27' W 090°43'0 0.0
2017-Feb-19 11:33N 29°27' W 090°43'0 0.0
2017-Feb-19 10:33N 29°27' W 090°43'0 0.0
2017-Feb-19 09:33N 29°27' W 090°43'0 0.0
2017-Feb-19 08:33N 29°27' W 090°43'0 0.0
2017-Feb-19 07:32N 29°27' W 090°43'0 0.0
2017-Feb-19 06:33N 29°27' W 090°43'0 0.0
2017-Feb-19 05:33N 29°27' W 090°43'0 0.0
2017-Feb-19 04:33N 29°27' W 090°43'0 0.0
2017-Feb-19 03:33N 29°27' W 090°43'0 0.0
2017-Feb-19 02:33N 29°27' W 090°43'0 0.0
2017-Feb-19 01:33N 29°27' W 090°43'0 0.0
2017-Feb-19 00:33N 29°27' W 090°43'0 0.0
2017-Feb-18 23:33N 29°27' W 090°43'0 0.0
2017-Feb-18 22:33N 29°27' W 090°43'0 0.0
2017-Feb-18 21:33N 29°27' W 090°43'0 0.0
2017-Feb-18 20:33N 29°27' W 090°43'0 0.0
2017-Feb-18 19:33N 29°27' W 090°43'1 0.6
2017-Feb-18 18:33N 29°26' W 090°43'0 0.0
2017-Feb-18 17:23N 29°26' W 090°43'1 0.7
2017-Feb-18 16:33N 29°27' W 090°43'0 0.0
2017-Feb-18 15:33N 29°27' W 090°43'0 0.0
2017-Feb-18 14:33N 29°27' W 090°43'0 0.0
2017-Feb-18 13:33N 29°27' W 090°43'0 0.0
2017-Feb-18 12:33N 29°27' W 090°43'0 0.0
2017-Feb-18 11:33N 29°27' W 090°43'0 0.0
2017-Feb-18 10:33N 29°27' W 090°43'0 0.0
2017-Feb-18 09:33N 29°27' W 090°43'0 0.0
2017-Feb-18 08:33N 29°27' W 090°43'0 0.0
2017-Feb-18 07:33N 29°27' W 090°43'0 0.0
2017-Feb-18 06:33N 29°27' W 090°43'0 0.0
2017-Feb-18 05:33N 29°27' W 090°43'0 0.0
2017-Feb-18 04:33N 29°27' W 090°43'0 0.0
2017-Feb-18 03:33N 29°27' W 090°43'0 0.0
2017-Feb-18 02:33N 29°27' W 090°43'0 0.0
2017-Feb-18 01:33N 29°27' W 090°43'0 0.0
2017-Feb-18 00:33N 29°27' W 090°43'0 0.0
2017-Feb-17 23:33N 29°27' W 090°43'0 0.0
2017-Feb-17 22:33N 29°27' W 090°43'0 0.0
2017-Feb-17 21:33N 29°27' W 090°43'0 0.0
2017-Feb-17 20:33N 29°27' W 090°43'0 0.0
2017-Feb-17 19:33N 29°27' W 090°43'1 0.5
2017-Feb-17 18:33N 29°26' W 090°43'1 0.7
2017-Feb-17 17:33N 29°27' W 090°43'0 0.0
2017-Feb-17 16:33N 29°27' W 090°43'0 0.0
2017-Feb-17 15:33N 29°27' W 090°43'0 0.0
2017-Feb-17 14:33N 29°27' W 090°43'0 0.0
2017-Feb-17 13:33N 29°27' W 090°43'0 0.0
2017-Feb-17 12:33N 29°27' W 090°43'0 0.0
2017-Feb-17 11:33N 29°27' W 090°43'0 0.0
2017-Feb-17 10:33N 29°27' W 090°43'0 0.0
2017-Feb-17 09:33N 29°27' W 090°43'0 0.0
2017-Feb-17 08:33N 29°27' W 090°43'0 0.0
2017-Feb-17 07:33N 29°27' W 090°43'0 0.0
2017-Feb-17 06:33N 29°27' W 090°43'0 0.0
2017-Feb-17 05:33N 29°27' W 090°43'0 0.0
2017-Feb-17 04:33N 29°27' W 090°43'1 0.9
2017-Feb-17 03:33N 29°28' W 090°43'5 4.6
2017-Feb-17 02:33N 29°32' W 090°42'2 2.5
2017-Feb-17 01:33N 29°34' W 090°44'1 1.3
2017-Feb-17 00:33N 29°33' W 090°45'0 0.0
2017-Feb-16 23:33N 29°33' W 090°45'4 3.6
2017-Feb-16 22:33N 29°32' W 090°49'10 0.7
2017-Feb-16 07:30N 29°37' W 090°59'5 4.9
2017-Feb-16 06:31N 29°34' W 090°55'5 4.8
2017-Feb-16 05:33N 29°32' W 090°50'4 4.3
2017-Feb-16 04:33N 29°33' W 090°45'  

Dump ship's entire track history